sensor_id;sensor_type;location;lat;lon;timestamp;pressure;altitude;pressure_sealevel;temperature;humidity
84859;BME280;75115;42.984;23.244;2024-03-29T00:01:09;95133.63;;;7.51;61.80
84859;BME280;75115;42.984;23.244;2024-03-29T00:03:35;95141.63;;;7.40;62.71
84859;BME280;75115;42.984;23.244;2024-03-29T00:06:00;95138.91;;;7.49;61.38
84859;BME280;75115;42.984;23.244;2024-03-29T00:08:26;95148.75;;;7.54;62.02
84859;BME280;75115;42.984;23.244;2024-03-29T00:10:52;95136.00;;;7.44;62.01
84859;BME280;75115;42.984;23.244;2024-03-29T00:13:18;95148.75;;;7.46;62.53
84859;BME280;75115;42.984;23.244;2024-03-29T00:15:45;95149.19;;;7.41;62.41
84859;BME280;75115;42.984;23.244;2024-03-29T00:18:11;95146.16;;;7.38;62.28
84859;BME280;75115;42.984;23.244;2024-03-29T00:20:36;95145.19;;;7.39;62.18
84859;BME280;75115;42.984;23.244;2024-03-29T00:23:02;95138.50;;;7.28;62.67
84859;BME280;75115;42.984;23.244;2024-03-29T00:25:27;95154.66;;;7.30;62.40
84859;BME280;75115;42.984;23.244;2024-03-29T00:27:52;95152.41;;;7.35;62.22
84859;BME280;75115;42.984;23.244;2024-03-29T00:30:18;95146.16;;;7.38;62.47
84859;BME280;75115;42.984;23.244;2024-03-29T00:32:43;95148.34;;;7.33;62.80
84859;BME280;75115;42.984;23.244;2024-03-29T00:35:08;95142.41;;;7.32;62.62
84859;BME280;75115;42.984;23.244;2024-03-29T00:37:34;95142.84;;;7.28;62.79
84859;BME280;75115;42.984;23.244;2024-03-29T00:39:59;95140.78;;;7.31;62.95
84859;BME280;75115;42.984;23.244;2024-03-29T00:42:25;95147.56;;;7.32;62.78
84859;BME280;75115;42.984;23.244;2024-03-29T00:44:50;95148.06;;;7.36;62.56
84859;BME280;75115;42.984;23.244;2024-03-29T00:47:15;95152.06;;;7.30;62.30
84859;BME280;75115;42.984;23.244;2024-03-29T00:49:41;95149.16;;;7.25;62.22
84859;BME280;75115;42.984;23.244;2024-03-29T00:52:06;95144.44;;;7.20;62.91
84859;BME280;75115;42.984;23.244;2024-03-29T00:54:32;95138.78;;;7.17;63.07
84859;BME280;75115;42.984;23.244;2024-03-29T00:56:57;95139.22;;;7.04;63.62
84859;BME280;75115;42.984;23.244;2024-03-29T00:59:23;95145.09;;;6.88;64.58
84859;BME280;75115;42.984;23.244;2024-03-29T01:01:49;95154.34;;;7.07;63.86
84859;BME280;75115;42.984;23.244;2024-03-29T01:04:15;95161.25;;;6.98;63.50
84859;BME280;75115;42.984;23.244;2024-03-29T01:06:41;95169.91;;;6.89;63.72
84859;BME280;75115;42.984;23.244;2024-03-29T01:09:06;95168.94;;;6.90;63.24
84859;BME280;75115;42.984;23.244;2024-03-29T01:11:32;95174.25;;;6.89;63.44
84859;BME280;75115;42.984;23.244;2024-03-29T01:13:58;95183.19;;;6.77;64.35
84859;BME280;75115;42.984;23.244;2024-03-29T01:16:23;95185.69;;;6.68;64.75
84859;BME280;75115;42.984;23.244;2024-03-29T01:18:49;95182.16;;;6.69;64.29
84859;BME280;75115;42.984;23.244;2024-03-29T01:21:14;95193.97;;;6.54;65.00
84859;BME280;75115;42.984;23.244;2024-03-29T01:23:40;95189.78;;;6.53;64.82
84859;BME280;75115;42.984;23.244;2024-03-29T01:26:06;95197.34;;;6.55;64.76
84859;BME280;75115;42.984;23.244;2024-03-29T01:28:32;95192.28;;;6.27;66.22
84859;BME280;75115;42.984;23.244;2024-03-29T01:30:57;95203.84;;;6.41;65.17
84859;BME280;75115;42.984;23.244;2024-03-29T01:33:26;95213.56;;;6.29;65.54
84859;BME280;75115;42.984;23.244;2024-03-29T01:35:51;95219.88;;;6.35;65.46
84859;BME280;75115;42.984;23.244;2024-03-29T01:38:16;95206.72;;;6.38;65.61
84859;BME280;75115;42.984;23.244;2024-03-29T01:40:43;95202.88;;;6.24;67.18
84859;BME280;75115;42.984;23.244;2024-03-29T01:43:08;95211.38;;;6.07;67.13
84859;BME280;75115;42.984;23.244;2024-03-29T01:45:41;95208.53;;;6.10;67.92
84859;BME280;75115;42.984;23.244;2024-03-29T01:48:07;95200.81;;;6.10;67.51
84859;BME280;75115;42.984;23.244;2024-03-29T01:50:34;95205.59;;;6.05;68.12
84859;BME280;75115;42.984;23.244;2024-03-29T01:53:00;95211.72;;;5.94;68.09
84859;BME280;75115;42.984;23.244;2024-03-29T01:55:26;95227.09;;;5.86;68.37
84859;BME280;75115;42.984;23.244;2024-03-29T01:57:52;95234.38;;;5.90;68.60
84859;BME280;75115;42.984;23.244;2024-03-29T02:00:18;95228.25;;;5.91;68.36
84859;BME280;75115;42.984;23.244;2024-03-29T02:02:44;95233.81;;;5.96;68.02
84859;BME280;75115;42.984;23.244;2024-03-29T02:05:10;95235.81;;;6.03;67.05
84859;BME280;75115;42.984;23.244;2024-03-29T02:07:36;95230.69;;;6.20;66.91
84859;BME280;75115;42.984;23.244;2024-03-29T02:10:03;95239.50;;;6.00;68.25
84859;BME280;75115;42.984;23.244;2024-03-29T02:12:28;95228.16;;;6.11;67.17
84859;BME280;75115;42.984;23.244;2024-03-29T02:14:54;95239.34;;;6.02;68.65
84859;BME280;75115;42.984;23.244;2024-03-29T02:17:20;95233.97;;;5.95;68.06
84859;BME280;75115;42.984;23.244;2024-03-29T02:19:46;95241.41;;;5.88;68.93
84859;BME280;75115;42.984;23.244;2024-03-29T02:22:15;95243.84;;;5.99;67.94
84859;BME280;75115;42.984;23.244;2024-03-29T02:24:40;95241.44;;;6.16;67.41
84859;BME280;75115;42.984;23.244;2024-03-29T02:27:06;95248.38;;;6.33;66.54
84859;BME280;75115;42.984;23.244;2024-03-29T02:29:31;95246.22;;;6.46;66.49
84859;BME280;75115;42.984;23.244;2024-03-29T02:31:56;95246.75;;;6.50;65.89
84859;BME280;75115;42.984;23.244;2024-03-29T02:34:22;95268.25;;;6.41;66.64
84859;BME280;75115;42.984;23.244;2024-03-29T02:36:48;95265.88;;;6.30;66.66
84859;BME280;75115;42.984;23.244;2024-03-29T02:39:14;95279.75;;;6.19;67.05
84859;BME280;75115;42.984;23.244;2024-03-29T02:41:39;95279.38;;;6.14;66.43
84859;BME280;75115;42.984;23.244;2024-03-29T02:44:04;95287.34;;;6.20;66.84
84859;BME280;75115;42.984;23.244;2024-03-29T02:46:30;95296.31;;;6.16;66.52
84859;BME280;75115;42.984;23.244;2024-03-29T02:48:55;95290.38;;;6.16;66.19
84859;BME280;75115;42.984;23.244;2024-03-29T02:51:21;95295.19;;;6.19;65.54
84859;BME280;75115;42.984;23.244;2024-03-29T02:53:46;95293.75;;;6.16;66.49
84859;BME280;75115;42.984;23.244;2024-03-29T02:56:11;95309.91;;;6.09;66.60
84859;BME280;75115;42.984;23.244;2024-03-29T02:58:38;95310.19;;;6.06;67.00
84859;BME280;75115;42.984;23.244;2024-03-29T03:01:07;95314.53;;;6.05;66.14
84859;BME280;75115;42.984;23.244;2024-03-29T03:03:33;95303.03;;;5.99;67.27
84859;BME280;75115;42.984;23.244;2024-03-29T03:05:58;95305.22;;;5.85;67.69
84859;BME280;75115;42.984;23.244;2024-03-29T03:08:24;95314.03;;;5.92;67.70
84859;BME280;75115;42.984;23.244;2024-03-29T03:11:08;95318.78;;;5.96;68.06
84859;BME280;75115;42.984;23.244;2024-03-29T03:13:33;95311.19;;;5.85;67.71
84859;BME280;75115;42.984;23.244;2024-03-29T03:15:58;95306.94;;;5.66;69.14
84859;BME280;75115;42.984;23.244;2024-03-29T03:18:24;95307.75;;;5.67;69.26
84859;BME280;75115;42.984;23.244;2024-03-29T03:20:56;95314.88;;;5.73;68.35
84859;BME280;75115;42.984;23.244;2024-03-29T03:23:24;95311.94;;;5.68;68.63
84859;BME280;75115;42.984;23.244;2024-03-29T03:25:54;95315.63;;;5.56;69.44
84859;BME280;75115;42.984;23.244;2024-03-29T03:28:19;95324.00;;;5.67;68.43
84859;BME280;75115;42.984;23.244;2024-03-29T03:30:45;95327.13;;;5.61;68.63
84859;BME280;75115;42.984;23.244;2024-03-29T03:33:10;95332.81;;;5.55;68.86
84859;BME280;75115;42.984;23.244;2024-03-29T03:35:36;95338.25;;;5.42;69.46
84859;BME280;75115;42.984;23.244;2024-03-29T03:38:01;95342.34;;;5.35;69.38
84859;BME280;75115;42.984;23.244;2024-03-29T03:40:27;95339.66;;;5.27;69.26
84859;BME280;75115;42.984;23.244;2024-03-29T03:42:52;95342.34;;;5.25;70.15
84859;BME280;75115;42.984;23.244;2024-03-29T03:45:17;95350.47;;;5.31;70.06
84859;BME280;75115;42.984;23.244;2024-03-29T03:47:43;95359.00;;;5.31;68.61
84859;BME280;75115;42.984;23.244;2024-03-29T03:50:08;95361.31;;;5.15;69.80
84859;BME280;75115;42.984;23.244;2024-03-29T03:52:34;95366.19;;;5.08;70.48
84859;BME280;75115;42.984;23.244;2024-03-29T03:54:59;95372.53;;;5.04;70.96
84859;BME280;75115;42.984;23.244;2024-03-29T03:57:25;95383.22;;;5.09;69.58
84859;BME280;75115;42.984;23.244;2024-03-29T03:59:50;95374.31;;;5.04;70.55
84859;BME280;75115;42.984;23.244;2024-03-29T04:02:16;95387.00;;;5.05;71.18
84859;BME280;75115;42.984;23.244;2024-03-29T04:04:41;95390.81;;;5.11;70.93
84859;BME280;75115;42.984;23.244;2024-03-29T04:07:06;95397.72;;;5.10;70.84
84859;BME280;75115;42.984;23.244;2024-03-29T04:09:32;95397.31;;;5.15;69.78
84859;BME280;75115;42.984;23.244;2024-03-29T04:11:57;95388.09;;;5.12;70.32
84859;BME280;75115;42.984;23.244;2024-03-29T04:14:23;95399.59;;;5.18;70.60
84859;BME280;75115;42.984;23.244;2024-03-29T04:16:48;95403.66;;;4.91;71.42
84859;BME280;75115;42.984;23.244;2024-03-29T04:19:14;95408.13;;;4.89;70.93
84859;BME280;75115;42.984;23.244;2024-03-29T04:21:39;95412.16;;;4.92;72.03
84859;BME280;75115;42.984;23.244;2024-03-29T04:24:04;95415.94;;;4.88;71.42
84859;BME280;75115;42.984;23.244;2024-03-29T04:26:33;95421.63;;;4.91;72.01
84859;BME280;75115;42.984;23.244;2024-03-29T04:28:58;95434.63;;;4.90;72.63
84859;BME280;75115;42.984;23.244;2024-03-29T04:31:23;95438.97;;;4.89;71.13
84859;BME280;75115;42.984;23.244;2024-03-29T04:33:49;95442.06;;;4.93;71.61
84859;BME280;75115;42.984;23.244;2024-03-29T04:36:14;95442.91;;;5.03;71.91
84859;BME280;75115;42.984;23.244;2024-03-29T04:38:39;95450.50;;;5.14;70.69
84859;BME280;75115;42.984;23.244;2024-03-29T04:41:05;95440.88;;;5.26;70.74
84859;BME280;75115;42.984;23.244;2024-03-29T04:43:30;95453.72;;;5.26;71.50
84859;BME280;75115;42.984;23.244;2024-03-29T04:46:10;95471.06;;;5.34;71.24
84859;BME280;75115;42.984;23.244;2024-03-29T04:48:40;95471.06;;;5.43;70.10
84859;BME280;75115;42.984;23.244;2024-03-29T04:51:07;95474.19;;;5.57;69.53
84859;BME280;75115;42.984;23.244;2024-03-29T04:53:35;95467.41;;;5.75;69.59
84859;BME280;75115;42.984;23.244;2024-03-29T04:56:00;95475.13;;;6.04;68.90
84859;BME280;75115;42.984;23.244;2024-03-29T04:58:26;95488.78;;;6.24;68.55
84859;BME280;75115;42.984;23.244;2024-03-29T05:00:52;95492.19;;;6.52;67.31
84859;BME280;75115;42.984;23.244;2024-03-29T05:03:18;95489.38;;;6.83;66.63
84859;BME280;75115;42.984;23.244;2024-03-29T05:05:44;95487.91;;;6.98;65.80
84859;BME280;75115;42.984;23.244;2024-03-29T05:08:10;95484.44;;;7.35;64.90
84859;BME280;75115;42.984;23.244;2024-03-29T05:10:35;95480.75;;;7.55;63.62
84859;BME280;75115;42.984;23.244;2024-03-29T05:13:01;95481.69;;;7.90;63.29
84859;BME280;75115;42.984;23.244;2024-03-29T05:15:26;95473.84;;;8.25;61.95
84859;BME280;75115;42.984;23.244;2024-03-29T05:17:52;95479.97;;;8.77;60.45
84859;BME280;75115;42.984;23.244;2024-03-29T05:20:18;95494.72;;;9.43;58.65
84859;BME280;75115;42.984;23.244;2024-03-29T05:22:44;95487.44;;;11.00;54.93
84859;BME280;75115;42.984;23.244;2024-03-29T05:25:09;95491.44;;;13.22;48.75
84859;BME280;75115;42.984;23.244;2024-03-29T05:27:35;95497.69;;;14.85;42.71
84859;BME280;75115;42.984;23.244;2024-03-29T05:30:01;95487.59;;;16.64;38.99
84859;BME280;75115;42.984;23.244;2024-03-29T05:32:26;95490.22;;;18.87;34.22
84859;BME280;75115;42.984;23.244;2024-03-29T05:34:53;95483.69;;;20.70;30.74
84859;BME280;75115;42.984;23.244;2024-03-29T05:37:19;95486.34;;;22.87;27.64
84859;BME280;75115;42.984;23.244;2024-03-29T05:39:44;95483.88;;;24.44;25.29
84859;BME280;75115;42.984;23.244;2024-03-29T05:42:09;95470.28;;;25.98;23.29
84859;BME280;75115;42.984;23.244;2024-03-29T05:44:35;95480.09;;;27.15;20.65
84859;BME280;75115;42.984;23.244;2024-03-29T05:47:04;95480.56;;;28.26;18.92
84859;BME280;75115;42.984;23.244;2024-03-29T05:49:33;95485.22;;;29.32;18.80
84859;BME280;75115;42.984;23.244;2024-03-29T05:51:58;95482.75;;;30.54;16.87
84859;BME280;75115;42.984;23.244;2024-03-29T05:54:24;95482.88;;;31.78;15.92
84859;BME280;75115;42.984;23.244;2024-03-29T05:56:50;95486.22;;;32.56;13.89
84859;BME280;75115;42.984;23.244;2024-03-29T05:59:15;95478.81;;;33.46;14.41
84859;BME280;75115;42.984;23.244;2024-03-29T06:01:40;95474.47;;;34.37;13.29
84859;BME280;75115;42.984;23.244;2024-03-29T06:04:06;95467.50;;;35.09;12.56
84859;BME280;75115;42.984;23.244;2024-03-29T06:06:34;95467.13;;;35.87;12.17
84859;BME280;75115;42.984;23.244;2024-03-29T06:08:59;95470.44;;;36.68;11.89
84859;BME280;75115;42.984;23.244;2024-03-29T06:11:25;95465.25;;;37.45;11.53
84859;BME280;75115;42.984;23.244;2024-03-29T06:13:50;95468.91;;;38.14;10.94
84859;BME280;75115;42.984;23.244;2024-03-29T06:16:24;95462.69;;;38.69;10.01
84859;BME280;75115;42.984;23.244;2024-03-29T06:19:08;95462.44;;;38.75;9.56
84859;BME280;75115;42.984;23.244;2024-03-29T06:21:33;95458.72;;;38.95;9.92
84859;BME280;75115;42.984;23.244;2024-03-29T06:24:08;95468.50;;;38.56;9.71
84859;BME280;75115;42.984;23.244;2024-03-29T06:26:34;95459.31;;;38.44;10.04
84859;BME280;75115;42.984;23.244;2024-03-29T06:29:00;95469.44;;;37.55;10.17
84859;BME280;75115;42.984;23.244;2024-03-29T06:31:26;95462.22;;;38.52;9.99
84859;BME280;75115;42.984;23.244;2024-03-29T06:33:51;95463.09;;;39.47;9.58
84859;BME280;75115;42.984;23.244;2024-03-29T06:36:17;95452.56;;;39.61;9.13
84859;BME280;75115;42.984;23.244;2024-03-29T06:38:42;95459.03;;;40.27;8.82
84859;BME280;75115;42.984;23.244;2024-03-29T06:41:07;95449.88;;;40.97;8.53
84859;BME280;75115;42.984;23.244;2024-03-29T06:43:33;95449.84;;;41.43;8.29
84859;BME280;75115;42.984;23.244;2024-03-29T06:45:58;95432.25;;;41.90;8.08
84859;BME280;75115;42.984;23.244;2024-03-29T06:48:24;95447.97;;;41.47;7.77
84859;BME280;75115;42.984;23.244;2024-03-29T06:50:50;95444.19;;;41.55;8.25
84859;BME280;75115;42.984;23.244;2024-03-29T06:53:16;95450.16;;;41.65;8.04
84859;BME280;75115;42.984;23.244;2024-03-29T06:55:41;95453.34;;;41.44;8.21
84859;BME280;75115;42.984;23.244;2024-03-29T06:58:06;95443.16;;;41.14;8.45
84859;BME280;75115;42.984;23.244;2024-03-29T07:00:32;95440.44;;;41.67;8.07
84859;BME280;75115;42.984;23.244;2024-03-29T07:02:57;95453.09;;;41.52;8.12
84859;BME280;75115;42.984;23.244;2024-03-29T07:05:23;95452.41;;;41.59;8.00
84859;BME280;75115;42.984;23.244;2024-03-29T07:07:48;95447.84;;;42.23;8.13
84859;BME280;75115;42.984;23.244;2024-03-29T07:10:14;95451.34;;;42.57;7.35
84859;BME280;75115;42.984;23.244;2024-03-29T07:12:39;95449.75;;;41.93;7.65
84859;BME280;75115;42.984;23.244;2024-03-29T07:15:05;95441.84;;;41.80;7.80
84859;BME280;75115;42.984;23.244;2024-03-29T07:17:30;95436.50;;;41.38;7.56
84859;BME280;75115;42.984;23.244;2024-03-29T07:19:56;95441.72;;;40.35;8.28
84859;BME280;75115;42.984;23.244;2024-03-29T07:22:21;95443.72;;;40.19;8.02
84859;BME280;75115;42.984;23.244;2024-03-29T07:24:46;95441.72;;;39.61;8.80
84859;BME280;75115;42.984;23.244;2024-03-29T07:27:12;95442.75;;;39.57;9.07
84859;BME280;75115;42.984;23.244;2024-03-29T07:29:39;95444.72;;;38.77;8.98
84859;BME280;75115;42.984;23.244;2024-03-29T07:32:05;95443.59;;;38.50;9.88
84859;BME280;75115;42.984;23.244;2024-03-29T07:34:31;95439.19;;;38.74;10.15
84859;BME280;75115;42.984;23.244;2024-03-29T07:36:56;95442.53;;;37.99;10.08
84859;BME280;75115;42.984;23.244;2024-03-29T07:39:21;95445.88;;;37.55;10.58
84859;BME280;75115;42.984;23.244;2024-03-29T07:41:47;95449.41;;;36.19;10.75
84859;BME280;75115;42.984;23.244;2024-03-29T07:44:13;95449.13;;;33.77;13.78
84859;BME280;75115;42.984;23.244;2024-03-29T07:46:38;95458.59;;;31.19;15.49
84859;BME280;75115;42.984;23.244;2024-03-29T07:49:05;95461.78;;;30.61;15.91
84859;BME280;75115;42.984;23.244;2024-03-29T07:51:30;95465.69;;;29.98;17.74
84859;BME280;75115;42.984;23.244;2024-03-29T07:53:56;95470.50;;;28.18;19.07
84859;BME280;75115;42.984;23.244;2024-03-29T07:56:21;95466.78;;;27.00;20.08
84859;BME280;75115;42.984;23.244;2024-03-29T07:58:54;95472.06;;;25.72;21.70
84859;BME280;75115;42.984;23.244;2024-03-29T08:01:20;95471.53;;;24.60;23.41
84859;BME280;75115;42.984;23.244;2024-03-29T08:03:46;95464.06;;;23.65;24.43
84859;BME280;75115;42.984;23.244;2024-03-29T08:06:12;95460.94;;;23.03;25.92
84859;BME280;75115;42.984;23.244;2024-03-29T08:08:37;95458.28;;;22.13;26.54
84859;BME280;75115;42.984;23.244;2024-03-29T08:11:03;95458.25;;;21.97;27.74
84859;BME280;75115;42.984;23.244;2024-03-29T08:13:28;95463.88;;;21.72;28.62
84859;BME280;75115;42.984;23.244;2024-03-29T08:16:00;95460.44;;;21.31;28.71
84859;BME280;75115;42.984;23.244;2024-03-29T08:18:26;95460.44;;;20.90;28.76
84859;BME280;75115;42.984;23.244;2024-03-29T08:20:52;95445.53;;;20.73;28.72
84859;BME280;75115;42.984;23.244;2024-03-29T08:23:19;95434.63;;;20.81;29.13
84859;BME280;75115;42.984;23.244;2024-03-29T08:25:44;95444.63;;;20.67;30.34
84859;BME280;75115;42.984;23.244;2024-03-29T08:28:10;95433.03;;;20.80;31.09
84859;BME280;75115;42.984;23.244;2024-03-29T08:30:36;95432.47;;;20.78;29.96
84859;BME280;75115;42.984;23.244;2024-03-29T08:33:02;95432.38;;;20.49;30.21
84859;BME280;75115;42.984;23.244;2024-03-29T08:35:31;95427.91;;;20.50;30.60
84859;BME280;75115;42.984;23.244;2024-03-29T08:37:57;95415.06;;;20.41;31.19
84859;BME280;75115;42.984;23.244;2024-03-29T08:40:22;95419.41;;;20.59;30.33
84859;BME280;75115;42.984;23.244;2024-03-29T08:42:49;95416.22;;;20.69;30.75
84859;BME280;75115;42.984;23.244;2024-03-29T08:45:15;95409.47;;;20.50;30.51
84859;BME280;75115;42.984;23.244;2024-03-29T08:47:40;95410.16;;;20.57;30.24
84859;BME280;75115;42.984;23.244;2024-03-29T08:50:05;95397.88;;;20.62;29.66
84859;BME280;75115;42.984;23.244;2024-03-29T08:52:31;95404.19;;;20.61;31.17
84859;BME280;75115;42.984;23.244;2024-03-29T08:54:56;95395.34;;;20.67;29.64
84859;BME280;75115;42.984;23.244;2024-03-29T08:57:22;95397.88;;;20.62;30.20
84859;BME280;75115;42.984;23.244;2024-03-29T08:59:47;95404.66;;;20.23;30.49
84859;BME280;75115;42.984;23.244;2024-03-29T09:02:12;95407.94;;;19.95;30.74
84859;BME280;75115;42.984;23.244;2024-03-29T09:04:38;95401.16;;;19.87;30.66
84859;BME280;75115;42.984;23.244;2024-03-29T09:07:03;95399.44;;;19.81;31.34
84859;BME280;75115;42.984;23.244;2024-03-29T09:09:30;95399.22;;;19.94;31.56
84859;BME280;75115;42.984;23.244;2024-03-29T09:11:56;95393.38;;;19.92;30.67
84859;BME280;75115;42.984;23.244;2024-03-29T09:14:21;95393.72;;;19.96;32.78
84859;BME280;75115;42.984;23.244;2024-03-29T09:16:47;95390.66;;;19.99;30.44
84859;BME280;75115;42.984;23.244;2024-03-29T09:19:13;95389.69;;;19.70;30.79
84859;BME280;75115;42.984;23.244;2024-03-29T09:21:39;95390.13;;;19.67;30.61
84859;BME280;75115;42.984;23.244;2024-03-29T09:24:05;95386.69;;;19.66;29.94
84859;BME280;75115;42.984;23.244;2024-03-29T09:26:31;95378.03;;;19.78;29.36
84859;BME280;75115;42.984;23.244;2024-03-29T09:28:56;95371.66;;;20.09;30.46
84859;BME280;75115;42.984;23.244;2024-03-29T09:31:21;95369.34;;;20.01;30.11
84859;BME280;75115;42.984;23.244;2024-03-29T09:33:47;95374.94;;;19.92;29.33
84859;BME280;75115;42.984;23.244;2024-03-29T09:36:19;95377.25;;;20.01;29.04
84859;BME280;75115;42.984;23.244;2024-03-29T09:38:44;95371.88;;;19.96;28.94
84859;BME280;75115;42.984;23.244;2024-03-29T09:41:13;95369.81;;;20.09;29.55
84859;BME280;75115;42.984;23.244;2024-03-29T09:43:41;95365.03;;;20.06;29.88
84859;BME280;75115;42.984;23.244;2024-03-29T09:46:08;95370.97;;;20.02;28.89
84859;BME280;75115;42.984;23.244;2024-03-29T09:48:34;95357.00;;;20.13;28.86
84859;BME280;75115;42.984;23.244;2024-03-29T09:51:04;95353.47;;;20.19;29.63
84859;BME280;75115;42.984;23.244;2024-03-29T09:53:31;95338.78;;;20.35;27.31
84859;BME280;75115;42.984;23.244;2024-03-29T09:55:58;95351.94;;;20.47;28.40
84859;BME280;75115;42.984;23.244;2024-03-29T09:58:24;95339.81;;;20.57;28.35
84859;BME280;75115;42.984;23.244;2024-03-29T10:00:49;95330.28;;;20.68;29.44
84859;BME280;75115;42.984;23.244;2024-03-29T10:03:15;95349.72;;;20.79;29.35
84859;BME280;75115;42.984;23.244;2024-03-29T10:05:45;95334.81;;;20.84;28.52
84859;BME280;75115;42.984;23.244;2024-03-29T10:08:12;95343.75;;;20.83;27.00
84859;BME280;75115;42.984;23.244;2024-03-29T10:10:38;95341.41;;;20.70;27.96
84859;BME280;75115;42.984;23.244;2024-03-29T10:13:04;95334.75;;;20.56;26.34
84859;BME280;75115;42.984;23.244;2024-03-29T10:15:29;95330.44;;;20.50;26.76
84859;BME280;75115;42.984;23.244;2024-03-29T10:17:58;95339.81;;;20.57;27.85
84859;BME280;75115;42.984;23.244;2024-03-29T10:20:23;95335.78;;;20.66;27.08
84859;BME280;75115;42.984;23.244;2024-03-29T10:22:52;95339.03;;;20.85;26.80
84859;BME280;75115;42.984;23.244;2024-03-29T10:25:18;95333.91;;;20.79;26.52
84859;BME280;75115;42.984;23.244;2024-03-29T10:27:45;95331.84;;;20.81;26.63
84859;BME280;75115;42.984;23.244;2024-03-29T10:30:11;95325.66;;;20.87;28.04
84859;BME280;75115;42.984;23.244;2024-03-29T10:32:40;95322.44;;;20.85;25.86
84859;BME280;75115;42.984;23.244;2024-03-29T10:35:06;95328.13;;;20.93;27.62
84859;BME280;75115;42.984;23.244;2024-03-29T10:37:32;95317.13;;;20.97;26.96
84859;BME280;75115;42.984;23.244;2024-03-29T10:39:57;95320.03;;;20.83;26.84
84859;BME280;75115;42.984;23.244;2024-03-29T10:42:24;95325.75;;;20.80;27.20
84859;BME280;75115;42.984;23.244;2024-03-29T10:44:51;95323.00;;;20.87;29.12
84859;BME280;75115;42.984;23.244;2024-03-29T10:47:19;95329.03;;;20.59;26.75
84859;BME280;75115;42.984;23.244;2024-03-29T10:49:50;95326.53;;;20.52;28.87
84859;BME280;75115;42.984;23.244;2024-03-29T10:52:17;95324.81;;;20.34;27.64
84859;BME280;75115;42.984;23.244;2024-03-29T10:54:47;95335.69;;;20.26;28.80
84859;BME280;75115;42.984;23.244;2024-03-29T10:57:19;95316.25;;;20.27;27.88
84859;BME280;75115;42.984;23.244;2024-03-29T10:59:59;95321.38;;;20.22;28.61
84859;BME280;75115;42.984;23.244;2024-03-29T11:05:18;95326.19;;;20.25;28.68
84859;BME280;75115;42.984;23.244;2024-03-29T11:07:45;95331.00;;;20.28;28.28
84859;BME280;75115;42.984;23.244;2024-03-29T11:13:01;95320.38;;;20.23;27.99
84859;BME280;75115;42.984;23.244;2024-03-29T11:15:30;95314.88;;;20.25;30.34
84859;BME280;75115;42.984;23.244;2024-03-29T11:17:56;95324.81;;;20.34;28.97
84859;BME280;75115;42.984;23.244;2024-03-29T11:20:27;95316.78;;;20.41;30.12
84859;BME280;75115;42.984;23.244;2024-03-29T11:23:10;95318.06;;;20.50;29.30
84859;BME280;75115;42.984;23.244;2024-03-29T11:25:43;95319.78;;;20.56;28.96
84859;BME280;75115;42.984;23.244;2024-03-29T11:28:11;95319.28;;;20.59;29.98
84859;BME280;75115;42.984;23.244;2024-03-29T11:33:07;95305.91;;;20.89;30.81
84859;BME280;75115;42.984;23.244;2024-03-29T11:35:33;95311.09;;;20.84;30.01
84859;BME280;75115;42.984;23.244;2024-03-29T11:38:01;95307.34;;;20.68;29.48
84859;BME280;75115;42.984;23.244;2024-03-29T11:40:30;95313.19;;;20.71;28.11
84859;BME280;75115;42.984;23.244;2024-03-29T11:42:55;95308.03;;;20.76;28.53
84859;BME280;75115;42.984;23.244;2024-03-29T11:45:24;95303.59;;;20.64;26.69
84859;BME280;75115;42.984;23.244;2024-03-29T11:47:54;95294.09;;;20.63;27.23
84859;BME280;75115;42.984;23.244;2024-03-29T11:50:20;95291.44;;;20.63;25.87
84859;BME280;75115;42.984;23.244;2024-03-29T11:52:48;95291.06;;;20.72;26.53
84859;BME280;75115;42.984;23.244;2024-03-29T11:55:13;95298.25;;;20.88;26.14
84859;BME280;75115;42.984;23.244;2024-03-29T11:57:40;95295.94;;;20.91;27.12
84859;BME280;75115;42.984;23.244;2024-03-29T12:00:06;95290.03;;;20.73;27.70
84859;BME280;75115;42.984;23.244;2024-03-29T12:02:32;95279.75;;;20.71;27.61
84859;BME280;75115;42.984;23.244;2024-03-29T12:04:58;95284.56;;;20.74;27.24
84859;BME280;75115;42.984;23.244;2024-03-29T12:07:23;95279.50;;;20.73;27.21
84859;BME280;75115;42.984;23.244;2024-03-29T12:09:49;95290.75;;;20.68;27.58
84859;BME280;75115;42.984;23.244;2024-03-29T12:12:14;95294.47;;;20.84;28.81
84859;BME280;75115;42.984;23.244;2024-03-29T12:14:43;95281.72;;;20.92;26.49
84859;BME280;75115;42.984;23.244;2024-03-29T12:17:11;95282.94;;;21.02;28.53
84859;BME280;75115;42.984;23.244;2024-03-29T12:19:38;95276.94;;;21.06;27.92
84859;BME280;75115;42.984;23.244;2024-03-29T12:22:06;95276.41;;;21.21;27.81
84859;BME280;75115;42.984;23.244;2024-03-29T12:24:32;95283.38;;;21.27;28.36
84859;BME280;75115;42.984;23.244;2024-03-29T12:26:57;95276.94;;;21.06;25.76
84859;BME280;75115;42.984;23.244;2024-03-29T12:29:23;95268.72;;;21.03;26.83
84859;BME280;75115;42.984;23.244;2024-03-29T12:32:01;95273.44;;;21.01;25.15
84859;BME280;75115;42.984;23.244;2024-03-29T12:34:27;95267.09;;;21.02;26.10
84859;BME280;75115;42.984;23.244;2024-03-29T12:36:52;95266.19;;;21.08;24.50
84859;BME280;75115;42.984;23.244;2024-03-29T12:39:18;95260.31;;;21.06;24.89
84859;BME280;75115;42.984;23.244;2024-03-29T12:41:46;95266.25;;;21.13;25.05
84859;BME280;75115;42.984;23.244;2024-03-29T12:44:11;95263.47;;;21.20;26.05
84859;BME280;75115;42.984;23.244;2024-03-29T12:46:37;95267.06;;;21.30;25.37
84859;BME280;75115;42.984;23.244;2024-03-29T12:49:02;95269.81;;;21.35;26.62
84859;BME280;75115;42.984;23.244;2024-03-29T12:51:28;95271.66;;;21.52;25.18
84859;BME280;75115;42.984;23.244;2024-03-29T12:53:55;95270.47;;;21.59;26.22
84859;BME280;75115;42.984;23.244;2024-03-29T12:56:21;95269.50;;;21.49;25.43
84859;BME280;75115;42.984;23.244;2024-03-29T12:58:46;95259.59;;;21.56;25.70